Nashville, Tennessee
Current Conditions -  °F | °C
As of 1:53 PM on Sunday 23 Nov 2014 (Local Time) from KBNA Reporting Station
Light Rain Light Rain  
Wind Chill: 59°   Ceiling: 2100
Heat Index: 59°   Visibility: 8mi
Dew Point: 56°   Wind: 14mph
Humidity: 90%   Direction: 150°SSE
Pressure: 29.53"   Gusts: NA
Location:  36.11°N, 86.68°W
Report Text: KBNA 231953Z 15012KT 8SM -RA OVC021 15/13 A2953 RMK AO2 RAB1857 SLP999 P0008 T01500133
Loading
Personal Weather Stations






























Interactive Weather Map New forecast layout! Learn more

10-Day Weather Forecast

Advertisements
Track Severe Weather on mobile